createdAt,value
2016-12-14T00:00:27.351Z,4.58
2016-12-14T00:01:38.399Z,4.66
2016-12-14T00:02:49.121Z,4.64
2016-12-14T00:04:00.156Z,4.63
2016-12-14T00:05:10.885Z,4.63
2016-12-14T00:06:21.626Z,4.64
2016-12-14T00:07:32.327Z,4.67
2016-12-14T00:08:43.087Z,4.74
2016-12-14T00:09:53.810Z,4.6
2016-12-14T00:11:04.532Z,4.7
2016-12-14T00:12:15.234Z,4.71
2016-12-14T00:13:25.957Z,4.67
2016-12-14T00:14:36.700Z,4.79
2016-12-14T00:15:47.424Z,4.75
2016-12-14T00:16:58.182Z,4.7
2016-12-14T00:18:08.929Z,4.7
2016-12-14T00:19:19.654Z,4.79
2016-12-14T00:20:30.383Z,4.76
2016-12-14T00:21:41.126Z,4.76
2016-12-14T00:22:51.845Z,4.75
2016-12-14T00:24:02.575Z,4.82
2016-12-14T00:25:13.312Z,4.84
2016-12-14T00:26:24.051Z,4.82
2016-12-14T00:27:34.772Z,4.83
2016-12-14T00:28:45.525Z,4.9
2016-12-14T00:29:56.251Z,4.82
2016-12-14T00:31:06.998Z,4.89
2016-12-14T00:32:17.715Z,4.84
2016-12-14T00:33:28.437Z,4.87
2016-12-14T00:34:39.159Z,4.9
2016-12-14T00:35:49.931Z,4.86
2016-12-14T00:37:00.647Z,4.9
2016-12-14T00:38:11.390Z,4.94
2016-12-14T00:39:22.119Z,4.87
2016-12-14T00:40:32.858Z,4.83
2016-12-14T00:41:43.613Z,4.87
2016-12-14T00:42:54.353Z,4.94
2016-12-14T00:44:05.075Z,4.94
2016-12-14T00:45:15.799Z,4.94
2016-12-14T00:46:26.558Z,4.89
2016-12-14T00:47:37.311Z,5
2016-12-14T00:48:48.030Z,5
2016-12-14T00:49:59.076Z,4.92
2016-12-14T00:51:09.833Z,5.05
2016-12-14T00:52:20.552Z,4.97
2016-12-14T00:53:31.338Z,4.94
2016-12-14T00:54:42.091Z,5.01
2016-12-14T00:55:52.814Z,4.97
2016-12-14T00:57:03.572Z,4.98
2016-12-14T00:58:14.305Z,5
2016-12-14T00:59:25.039Z,5.05
2016-12-14T01:00:35.823Z,5.07
2016-12-14T01:01:46.568Z,5.08
2016-12-14T01:02:57.314Z,5.12
2016-12-14T01:04:08.047Z,5.18
2016-12-14T01:05:18.769Z,5.16
2016-12-14T01:06:29.504Z,5.18
2016-12-14T01:07:40.269Z,5.2
2016-12-14T01:08:51.015Z,5.22
2016-12-14T01:10:01.753Z,5.18
2016-12-14T01:11:12.787Z,5.2
2016-12-14T01:12:23.504Z,5.15
2016-12-14T01:13:34.241Z,5.25
2016-12-14T01:14:44.992Z,5.23
2016-12-14T01:15:55.745Z,5.31
2016-12-14T01:17:06.505Z,5.29
2016-12-14T01:18:17.213Z,5.29
2016-12-14T01:19:28.033Z,5.29
2016-12-14T01:20:38.782Z,5.36
2016-12-14T01:21:49.824Z,5.36
2016-12-14T01:23:00.525Z,5.36
2016-12-14T01:24:11.280Z,5.4
2016-12-14T01:25:22.026Z,5.31
2016-12-14T01:26:32.779Z,5.34
2016-12-14T01:27:43.504Z,5.4
2016-12-14T01:28:54.523Z,5.4
2016-12-14T01:30:05.542Z,5.52
2016-12-14T01:31:16.257Z,5.52
2016-12-14T01:32:26.980Z,5.46
2016-12-14T01:33:37.710Z,5.47
2016-12-14T01:34:48.447Z,5.46
2016-12-14T01:35:59.200Z,5.52
2016-12-14T01:37:09.930Z,5.61
2016-12-14T01:38:20.993Z,5.61
2016-12-14T01:39:31.740Z,5.61
2016-12-14T01:40:42.473Z,5.59
2016-12-14T01:41:53.226Z,5.62
2016-12-14T01:43:03.940Z,5.55
2016-12-14T01:44:14.690Z,5.56
2016-12-14T01:45:25.433Z,5.49
2016-12-14T01:46:36.182Z,5.58
2016-12-14T01:47:46.898Z,5.62
2016-12-14T01:48:57.637Z,5.64
2016-12-14T01:50:08.420Z,5.59
2016-12-14T01:51:19.137Z,5.55
2016-12-14T01:52:29.895Z,5.65
2016-12-14T01:53:40.641Z,5.64
2016-12-14T01:54:51.383Z,5.62
2016-12-14T01:56:02.133Z,5.72
2016-12-14T01:57:12.871Z,5.61
2016-12-14T01:58:23.597Z,5.64
2016-12-14T01:59:34.334Z,5.64
2016-12-14T02:00:45.093Z,5.64
2016-12-14T02:01:55.834Z,5.65
2016-12-14T02:03:06.600Z,5.72
2016-12-14T02:04:17.326Z,5.72
2016-12-14T02:05:28.050Z,5.67
2016-12-14T02:06:38.784Z,5.72
2016-12-14T02:07:49.538Z,5.79
2016-12-14T02:09:00.239Z,5.65
2016-12-14T02:10:10.976Z,5.77
2016-12-14T02:11:21.693Z,5.64
2016-12-14T02:12:32.477Z,5.73
2016-12-14T02:13:43.190Z,5.76
2016-12-14T02:14:53.906Z,5.72
2016-12-14T02:16:04.640Z,5.76
2016-12-14T02:17:15.385Z,5.72
2016-12-14T02:18:26.448Z,5.74
2016-12-14T02:19:37.198Z,5.77
2016-12-14T02:20:47.948Z,5.79
2016-12-14T02:21:58.687Z,5.77
2016-12-14T02:23:09.408Z,5.73
2016-12-14T02:24:20.149Z,5.79
2016-12-14T02:25:30.855Z,5.9
2016-12-14T02:26:41.567Z,5.76
2016-12-14T02:27:52.288Z,5.76
2016-12-14T02:29:03.012Z,5.83
2016-12-14T02:30:13.756Z,5.74
2016-12-14T02:31:24.500Z,5.73
2016-12-14T02:32:35.229Z,5.83
2016-12-14T02:33:45.929Z,5.87
2016-12-14T02:34:56.701Z,5.83
2016-12-14T02:36:07.439Z,5.81
2016-12-14T02:37:18.180Z,5.84
2016-12-14T02:38:28.915Z,5.81
2016-12-14T02:39:39.630Z,5.8
2016-12-14T02:40:50.372Z,5.88
2016-12-14T02:42:01.114Z,5.83
2016-12-14T02:43:11.869Z,5.88
2016-12-14T02:44:22.610Z,5.88
2016-12-14T02:45:33.363Z,5.94
2016-12-14T02:46:44.123Z,5.88
2016-12-14T02:47:54.851Z,5.81
2016-12-14T02:49:05.605Z,5.84
2016-12-14T02:50:16.624Z,5.9
2016-12-14T02:51:27.382Z,5.9
2016-12-14T02:52:38.119Z,5.92
2016-12-14T02:53:48.835Z,5.9
2016-12-14T02:54:59.573Z,5.92
2016-12-14T02:56:10.316Z,5.84
2016-12-14T02:57:21.061Z,5.97
2016-12-14T02:58:31.765Z,5.92
2016-12-14T02:59:42.504Z,5.97
2016-12-14T03:00:53.254Z,5.98
2016-12-14T03:02:03.985Z,6.01
2016-12-14T03:03:14.728Z,5.9
2016-12-14T03:04:25.467Z,5.97
2016-12-14T03:05:36.191Z,5.92
2016-12-14T03:06:46.908Z,5.88
2016-12-14T03:07:57.633Z,5.9
2016-12-14T03:09:08.402Z,5.91
2016-12-14T03:10:19.128Z,5.88
2016-12-14T03:11:29.864Z,5.91
2016-12-14T03:12:40.613Z,6.02
2016-12-14T03:13:51.342Z,5.91
2016-12-14T03:15:02.085Z,5.94
2016-12-14T03:16:12.826Z,5.94
2016-12-14T03:17:23.555Z,5.92
2016-12-14T03:18:34.293Z,6.02
2016-12-14T03:19:44.995Z,5.9
2016-12-14T03:20:55.738Z,5.91
2016-12-14T03:22:06.484Z,5.92
2016-12-14T03:23:17.235Z,6.06
2016-12-14T03:24:27.981Z,5.94
2016-12-14T03:25:38.727Z,5.91
2016-12-14T03:26:49.469Z,5.92
2016-12-14T03:28:00.511Z,5.91
2016-12-14T03:29:11.254Z,5.9
2016-12-14T03:30:22.008Z,5.94
2016-12-14T03:31:32.744Z,5.92
2016-12-14T03:32:43.473Z,5.91
2016-12-14T03:33:54.191Z,5.97
2016-12-14T03:35:04.941Z,5.98
2016-12-14T03:36:15.663Z,5.95
2016-12-14T03:37:26.378Z,5.92
2016-12-14T03:38:37.103Z,5.92
2016-12-14T03:39:47.828Z,5.92
2016-12-14T03:40:58.563Z,5.98
2016-12-14T03:42:09.309Z,6.01
2016-12-14T03:43:20.067Z,5.87
2016-12-14T03:44:30.800Z,5.95
2016-12-14T03:45:41.551Z,5.88
2016-12-14T03:46:52.305Z,5.91
2016-12-14T03:48:03.043Z,5.91
2016-12-14T03:49:13.789Z,5.94
2016-12-14T03:50:24.490Z,5.88
2016-12-14T03:51:35.190Z,5.99
2016-12-14T03:52:45.930Z,5.92
2016-12-14T03:53:56.669Z,5.92
2016-12-14T03:55:07.415Z,5.98
2016-12-14T03:56:18.161Z,5.97
2016-12-14T03:57:28.907Z,6.02
2016-12-14T03:58:39.960Z,6.01
2016-12-14T03:59:50.688Z,6.07
2016-12-14T04:01:01.456Z,6.02
2016-12-14T04:02:12.198Z,5.98
2016-12-14T04:03:22.916Z,6.05
2016-12-14T04:04:33.647Z,6.09
2016-12-14T04:05:44.391Z,5.94
2016-12-14T04:06:55.132Z,5.98
2016-12-14T04:08:05.875Z,5.98
2016-12-14T04:09:16.624Z,6.01
2016-12-14T04:10:27.370Z,6.1
2016-12-14T04:11:38.109Z,6.05
2016-12-14T04:12:48.834Z,6.1
2016-12-14T04:13:59.555Z,6.01
2016-12-14T04:15:10.301Z,6.02
2016-12-14T04:16:21.055Z,6.07
2016-12-14T04:17:32.096Z,6.01
2016-12-14T04:18:42.842Z,6.07
2016-12-14T04:19:53.588Z,6.1
2016-12-14T04:21:04.326Z,6.09
2016-12-14T04:22:15.051Z,6.07
2016-12-14T04:23:25.805Z,6.06
2016-12-14T04:24:36.540Z,6.06
2016-12-14T04:25:47.275Z,6.07
2016-12-14T04:26:58.040Z,6.01
2016-12-14T04:28:08.777Z,6.02
2016-12-14T04:29:19.514Z,6.07
2016-12-14T04:30:30.253Z,6.02
2016-12-14T04:31:40.970Z,6.05
2016-12-14T04:32:51.692Z,6.07
2016-12-14T04:34:02.421Z,6.05
2016-12-14T04:35:13.162Z,6.09
2016-12-14T04:36:23.931Z,6.1
2016-12-14T04:37:34.658Z,6.07
2016-12-14T04:38:45.730Z,6.05
2016-12-14T04:39:56.455Z,6.06
2016-12-14T04:41:07.183Z,6.1
2016-12-14T04:42:17.931Z,6.05
2016-12-14T04:43:28.681Z,6.09
2016-12-14T04:44:39.409Z,6.07
2016-12-14T04:45:50.142Z,6.02
2016-12-14T04:47:00.894Z,6.07
2016-12-14T04:48:11.936Z,6.07
2016-12-14T04:49:22.673Z,6.06
2016-12-14T04:50:33.432Z,6.05
2016-12-14T04:51:44.159Z,6.09
2016-12-14T04:52:54.907Z,6.06
2016-12-14T04:54:05.648Z,6.01
2016-12-14T04:55:16.366Z,6.06
2016-12-14T04:56:27.120Z,6.02
2016-12-14T04:57:37.861Z,6.06
2016-12-14T04:58:48.600Z,6.06
2016-12-14T04:59:59.345Z,6.1
2016-12-14T05:01:10.096Z,6.05
2016-12-14T05:02:20.827Z,6.05
2016-12-14T05:03:31.588Z,6.07
2016-12-14T05:04:42.334Z,6.02
2016-12-14T05:05:53.056Z,6.06
2016-12-14T05:07:03.783Z,6.06
2016-12-14T05:08:14.498Z,6.05
2016-12-14T05:09:25.218Z,6.07
2016-12-14T05:10:35.960Z,5.97
2016-12-14T05:11:46.686Z,6.02
2016-12-14T05:12:57.410Z,6.01
2016-12-14T05:14:08.156Z,6.06
2016-12-14T05:15:18.898Z,5.97
2016-12-14T05:16:29.648Z,6.02
2016-12-14T05:17:40.393Z,6.09
2016-12-14T05:18:51.112Z,6.12
2016-12-14T05:20:01.854Z,6.02
2016-12-14T05:21:12.574Z,6.05
2016-12-14T05:22:23.320Z,6.01
2016-12-14T05:23:34.041Z,6.06
2016-12-14T05:24:44.766Z,6.07
2016-12-14T05:25:55.521Z,6.02
2016-12-14T05:27:06.261Z,6.02
2016-12-14T05:28:16.957Z,6.02
2016-12-14T05:29:27.708Z,6.06
2016-12-14T05:30:38.430Z,6.06
2016-12-14T05:31:49.149Z,6.06
2016-12-14T05:32:59.886Z,6.02
2016-12-14T05:34:10.618Z,6.06
2016-12-14T05:35:21.339Z,6.09
2016-12-14T05:36:32.079Z,6.02
2016-12-14T05:37:42.818Z,6.09
2016-12-14T05:38:53.539Z,6.1
2016-12-14T05:40:04.550Z,6.09
2016-12-14T05:41:15.289Z,6.06
2016-12-14T05:42:26.007Z,6.06
2016-12-14T05:43:36.723Z,6.09
2016-12-14T05:44:47.448Z,6.09
2016-12-14T05:45:58.169Z,6.09
2016-12-14T05:47:08.885Z,6.1
2016-12-14T05:48:19.659Z,6.12
2016-12-14T05:49:30.411Z,6.01
2016-12-14T05:50:41.112Z,6.05
2016-12-14T05:51:51.849Z,6.07
2016-12-14T05:53:02.567Z,6.06
2016-12-14T05:54:13.312Z,6.07
2016-12-14T05:55:24.058Z,6.01
2016-12-14T05:56:34.816Z,6.06
2016-12-14T05:57:45.550Z,6.05
2016-12-14T05:58:56.289Z,6.02
2016-12-14T06:00:07.031Z,6.07
2016-12-14T06:01:17.788Z,6.01
2016-12-14T06:02:28.539Z,6.06
2016-12-14T06:03:39.585Z,6.09
2016-12-14T06:04:50.339Z,6.02
2016-12-14T06:06:01.130Z,6.07
2016-12-14T06:07:11.843Z,6.07
2016-12-14T06:08:22.593Z,5.99
2016-12-14T06:09:33.314Z,6.05
2016-12-14T06:10:44.015Z,6.1
2016-12-14T06:11:54.731Z,6.02
2016-12-14T06:13:05.461Z,6.07
2016-12-14T06:14:16.224Z,6.02
2016-12-14T06:15:26.965Z,6.06
2016-12-14T06:16:37.723Z,6.05
2016-12-14T06:17:48.482Z,6.1
2016-12-14T06:18:59.258Z,6.01
2016-12-14T06:20:09.991Z,6.06
2016-12-14T06:21:20.725Z,6.06
2016-12-14T06:22:31.470Z,6.07
2016-12-14T06:23:42.212Z,6.07
2016-12-14T06:24:52.942Z,6.07
2016-12-14T06:26:03.654Z,6.07
2016-12-14T06:27:14.410Z,6.06
2016-12-14T06:28:25.176Z,6.02
2016-12-14T06:29:35.929Z,5.99
2016-12-14T06:30:46.668Z,5.98
2016-12-14T06:31:57.397Z,6.05
2016-12-14T06:33:08.143Z,6.07
2016-12-14T06:34:19.209Z,6.06
2016-12-14T06:35:29.922Z,5.99
2016-12-14T06:36:40.655Z,6.01
2016-12-14T06:37:51.390Z,5.97
2016-12-14T06:39:02.136Z,6.05
2016-12-14T06:40:12.846Z,6.1
2016-12-14T06:41:23.593Z,6.07
2016-12-14T06:42:34.335Z,6.06
2016-12-14T06:43:45.070Z,6.07
2016-12-14T06:44:55.808Z,6.06
2016-12-14T06:46:06.844Z,6.06
2016-12-14T06:47:17.542Z,6.06
2016-12-14T06:48:28.286Z,6.06
2016-12-14T06:49:39.000Z,6.07
2016-12-14T06:50:49.754Z,6.1
2016-12-14T06:52:00.496Z,6.02
2016-12-14T06:53:11.242Z,6.02
2016-12-14T06:54:21.972Z,6.01
2016-12-14T06:55:32.737Z,6.01
2016-12-14T06:56:43.463Z,6.12
2016-12-14T06:57:54.196Z,6.05
2016-12-14T06:59:05.217Z,6.07
2016-12-14T07:00:15.952Z,5.98
2016-12-14T07:01:26.710Z,6.07
2016-12-14T07:02:37.457Z,6.06
2016-12-14T07:03:48.176Z,6.06
2016-12-14T07:04:59.723Z,6.07
2016-12-14T07:06:10.444Z,6.01
2016-12-14T07:07:21.174Z,6.1
2016-12-14T07:08:31.916Z,6.12
2016-12-14T07:09:42.640Z,6.17
2016-12-14T07:10:53.378Z,6.12
2016-12-14T07:12:04.103Z,6.07
2016-12-14T07:13:14.856Z,6.05
2016-12-14T07:14:25.607Z,6.07
2016-12-14T07:15:36.366Z,6.15
2016-12-14T07:16:47.087Z,6.12
2016-12-14T07:17:57.836Z,6.07
2016-12-14T07:19:08.563Z,6.16
2016-12-14T07:20:19.282Z,6.09
2016-12-14T07:21:30.002Z,6.07
2016-12-14T07:22:41.013Z,6.09
2016-12-14T07:23:51.763Z,6.1
2016-12-14T07:25:02.492Z,6.07
2016-12-14T07:26:13.238Z,6.22
2016-12-14T07:27:24.001Z,6.06
2016-12-14T07:28:35.042Z,6.05
2016-12-14T07:29:45.790Z,6.05
2016-12-14T07:30:56.514Z,6.05
2016-12-14T07:32:07.255Z,6.02
2016-12-14T07:33:18.002Z,6.05
2016-12-14T07:34:28.727Z,6.06
2016-12-14T07:35:39.473Z,6.06
2016-12-14T07:36:50.219Z,6.01
2016-12-14T07:38:00.940Z,6.01
2016-12-14T07:39:11.693Z,6.05
2016-12-14T07:40:22.428Z,6.05
2016-12-14T07:41:33.185Z,6.02
2016-12-14T07:42:43.919Z,6.05
2016-12-14T07:43:54.698Z,5.99
2016-12-14T07:45:05.448Z,6.01
2016-12-14T07:46:16.190Z,6.05
2016-12-14T07:47:26.907Z,6.02
2016-12-14T07:48:37.665Z,6.05
2016-12-14T07:49:48.396Z,6.1
2016-12-14T07:50:59.116Z,6.05
2016-12-14T07:52:09.870Z,6.01
2016-12-14T07:53:20.592Z,6.05
2016-12-14T07:54:31.337Z,6.05
2016-12-14T07:55:42.075Z,6.13
2016-12-14T07:56:53.133Z,6.1
2016-12-14T07:58:03.876Z,6.16
2016-12-14T07:59:14.618Z,6.19
2016-12-14T08:00:25.388Z,6.12
2016-12-14T08:01:36.142Z,6.06
2016-12-14T08:02:46.889Z,6.2
2016-12-14T08:03:57.647Z,6.13
2016-12-14T08:05:08.398Z,6.1
2016-12-14T08:06:19.143Z,6.05
2016-12-14T08:07:29.869Z,6.22
2016-12-14T08:08:40.613Z,6.09
2016-12-14T08:09:51.339Z,6.09
2016-12-14T08:11:02.034Z,6.12
2016-12-14T08:12:12.807Z,6.09
2016-12-14T08:13:23.540Z,6.16
2016-12-14T08:14:34.253Z,6.17
2016-12-14T08:15:45.011Z,6.09
2016-12-14T08:16:55.732Z,6.09
2016-12-14T08:18:06.463Z,6.05
2016-12-14T08:19:17.482Z,6.06
2016-12-14T08:20:28.216Z,6.06
2016-12-14T08:21:38.966Z,6.15
2016-12-14T08:22:49.742Z,6.05
2016-12-14T08:24:00.484Z,6.05
2016-12-14T08:25:11.232Z,6.01
2016-12-14T08:26:21.957Z,6.02
2016-12-14T08:27:32.716Z,6.05
2016-12-14T08:28:43.437Z,5.99
2016-12-14T08:29:54.170Z,6.01
2016-12-14T08:31:04.905Z,6.07
2016-12-14T08:32:15.629Z,6.06
2016-12-14T08:33:26.376Z,6.06
2016-12-14T08:34:37.104Z,6.02
2016-12-14T08:35:47.846Z,6.09
2016-12-14T08:36:58.564Z,6.01
2016-12-14T08:38:09.281Z,6.05
2016-12-14T08:39:20.039Z,6.06
2016-12-14T08:40:30.784Z,6.02
2016-12-14T08:41:41.523Z,6.01
2016-12-14T08:42:52.273Z,6.09
2016-12-14T08:44:03.010Z,6.01
2016-12-14T08:45:13.756Z,5.98
2016-12-14T08:46:24.478Z,5.98
2016-12-14T08:47:35.248Z,6.06
2016-12-14T08:48:45.985Z,5.99
2016-12-14T08:49:56.723Z,6.06
2016-12-14T08:51:07.498Z,5.99
2016-12-14T08:52:18.233Z,6.06
2016-12-14T08:53:28.943Z,6.06
2016-12-14T08:54:39.689Z,6.01
2016-12-14T08:55:50.432Z,5.91
2016-12-14T08:57:01.181Z,5.92
2016-12-14T08:58:11.920Z,5.92
2016-12-14T08:59:22.963Z,5.88
2016-12-14T09:00:33.692Z,6.05
2016-12-14T09:01:44.458Z,5.92
2016-12-14T09:02:55.175Z,5.9
2016-12-14T09:04:05.919Z,5.88
2016-12-14T09:05:16.676Z,5.94
2016-12-14T09:06:27.417Z,6.01
2016-12-14T09:07:38.114Z,5.91
2016-12-14T09:08:48.859Z,5.87
2016-12-14T09:09:59.605Z,5.95
2016-12-14T09:11:10.322Z,5.95
2016-12-14T09:12:21.064Z,5.98
2016-12-14T09:13:31.785Z,5.91
2016-12-14T09:14:42.530Z,5.91
2016-12-14T09:15:53.277Z,5.91
2016-12-14T09:17:04.012Z,5.91
2016-12-14T09:18:14.719Z,5.87
2016-12-14T09:19:25.448Z,5.84
2016-12-14T09:20:36.177Z,5.9
2016-12-14T09:21:46.908Z,5.87
2016-12-14T09:22:57.665Z,5.83
2016-12-14T09:24:08.429Z,5.76
2016-12-14T09:25:19.169Z,5.88
2016-12-14T09:26:29.896Z,5.83
2016-12-14T09:27:40.641Z,5.8
2016-12-14T09:28:51.383Z,5.84
2016-12-14T09:30:02.130Z,5.9
2016-12-14T09:31:12.857Z,5.87
2016-12-14T09:32:23.556Z,5.87
2016-12-14T09:33:34.271Z,5.9
2016-12-14T09:34:45.024Z,5.84
2016-12-14T09:35:55.793Z,5.79
2016-12-14T09:37:06.513Z,5.88
2016-12-14T09:38:17.262Z,5.87
2016-12-14T09:39:28.004Z,5.9
2016-12-14T09:40:38.776Z,5.95
2016-12-14T09:41:49.508Z,5.95
2016-12-14T09:43:00.260Z,5.9
2016-12-14T09:44:10.994Z,5.95
2016-12-14T09:45:21.735Z,5.99
2016-12-14T09:46:32.461Z,5.99
2016-12-14T09:47:43.198Z,5.99
2016-12-14T09:48:53.920Z,5.99
2016-12-14T09:50:04.678Z,6.12
2016-12-14T09:51:15.444Z,6.15
2016-12-14T09:52:26.182Z,6.15
2016-12-14T09:53:36.936Z,6.2
2016-12-14T09:54:47.670Z,6.29
2016-12-14T09:55:58.398Z,6.26
2016-12-14T09:57:09.141Z,6.32
2016-12-14T09:58:19.863Z,6.29
2016-12-14T09:59:30.604Z,6.34
2016-12-14T10:00:41.362Z,6.34
2016-12-14T10:01:52.125Z,6.43
2016-12-14T10:03:02.879Z,6.43
2016-12-14T10:04:13.624Z,6.44
2016-12-14T10:05:24.359Z,6.44
2016-12-14T10:06:35.162Z,6.44
2016-12-14T10:07:45.900Z,6.44
2016-12-14T10:08:56.626Z,6.38
2016-12-14T10:10:07.346Z,6.44
2016-12-14T10:11:18.393Z,6.39
2016-12-14T10:12:29.116Z,6.36
2016-12-14T10:13:39.831Z,6.46
2016-12-14T10:14:50.581Z,6.43
2016-12-14T10:16:01.321Z,6.46
2016-12-14T10:17:12.082Z,6.5
2016-12-14T10:18:22.844Z,6.44
2016-12-14T10:19:33.597Z,6.52
2016-12-14T10:20:44.315Z,6.5
2016-12-14T10:21:55.010Z,6.44
2016-12-14T10:23:05.739Z,6.47
2016-12-14T10:24:16.482Z,6.39
2016-12-14T10:25:27.215Z,6.44
2016-12-14T10:26:37.940Z,6.46
2016-12-14T10:27:48.657Z,6.41
2016-12-14T10:28:59.378Z,6.43
2016-12-14T10:30:10.100Z,6.41
2016-12-14T10:31:20.857Z,6.43
2016-12-14T10:32:31.599Z,6.47
2016-12-14T10:33:42.326Z,6.5
2016-12-14T10:34:53.063Z,6.5
2016-12-14T10:36:03.812Z,6.5
2016-12-14T10:37:14.530Z,6.5
2016-12-14T10:38:25.255Z,6.49
2016-12-14T10:39:36.268Z,6.54
2016-12-14T10:40:46.992Z,6.52
2016-12-14T10:41:57.719Z,6.46
2016-12-14T10:43:08.468Z,6.46
2016-12-14T10:44:19.185Z,6.47
2016-12-14T10:45:29.930Z,6.44
2016-12-14T10:46:40.668Z,6.44
2016-12-14T10:47:51.397Z,6.41
2016-12-14T10:49:02.448Z,6.39
2016-12-14T10:50:13.182Z,6.29
2016-12-14T10:51:23.928Z,6.39
2016-12-14T10:52:34.674Z,6.25
2016-12-14T10:53:45.424Z,6.29
2016-12-14T10:54:56.140Z,6.2
2016-12-14T10:56:06.853Z,6.29
2016-12-14T10:57:17.611Z,6.29
2016-12-14T10:58:28.363Z,6.34
2016-12-14T10:59:39.103Z,6.28
2016-12-14T11:00:49.828Z,6.34
2016-12-14T11:02:00.572Z,6.28
2016-12-14T11:03:11.305Z,6.32
2016-12-14T11:04:22.034Z,6.36
2016-12-14T11:05:32.760Z,6.39
2016-12-14T11:06:43.500Z,6.47
2016-12-14T11:07:54.254Z,6.44
2016-12-14T11:09:04.977Z,6.41
2016-12-14T11:10:15.700Z,6.41
2016-12-14T11:11:26.424Z,6.39
2016-12-14T11:12:37.171Z,6.47
2016-12-14T11:13:47.927Z,6.49
2016-12-14T11:14:58.685Z,6.5
2016-12-14T11:16:09.432Z,6.49
2016-12-14T11:17:20.202Z,6.5
2016-12-14T11:18:30.951Z,6.49
2016-12-14T11:19:41.694Z,6.56
2016-12-14T11:20:52.461Z,6.49
2016-12-14T11:22:03.189Z,6.52
2016-12-14T11:23:13.934Z,6.47
2016-12-14T11:24:24.704Z,6.5
2016-12-14T11:25:35.438Z,6.47
2016-12-14T11:26:46.168Z,6.5
2016-12-14T11:27:56.910Z,6.47
2016-12-14T11:29:07.658Z,6.43
2016-12-14T11:30:18.380Z,6.44
2016-12-14T11:31:29.105Z,6.43
2016-12-14T11:32:39.876Z,6.36
2016-12-14T11:33:50.973Z,6.39
2016-12-14T11:35:01.705Z,6.26
2016-12-14T11:36:12.464Z,6.31
2016-12-14T11:37:23.224Z,6.39
2016-12-14T11:38:33.982Z,6.26
2016-12-14T11:39:44.744Z,6.26
2016-12-14T11:40:55.493Z,6.28
2016-12-14T11:42:06.244Z,6.29
2016-12-14T11:43:16.986Z,6.29
2016-12-14T11:44:27.728Z,6.22
2016-12-14T11:45:38.483Z,6.19
2016-12-14T11:46:49.227Z,6.22
2016-12-14T11:47:59.999Z,6.29
2016-12-14T11:49:10.742Z,6.28
2016-12-14T11:50:21.479Z,6.17
2016-12-14T11:51:32.226Z,6.17
2016-12-14T11:52:42.976Z,6.17
2016-12-14T11:53:53.691Z,6.26
2016-12-14T11:55:04.475Z,6.22
2016-12-14T11:56:15.221Z,6.15
2016-12-14T11:57:25.930Z,6.31
2016-12-14T11:58:36.674Z,6.22
2016-12-14T11:59:47.711Z,6.22
2016-12-14T12:00:58.453Z,6.34
2016-12-14T12:02:09.172Z,6.17
2016-12-14T12:03:19.871Z,6.25
2016-12-14T12:04:30.589Z,6.29
2016-12-14T12:05:41.609Z,6.31
2016-12-14T12:06:52.308Z,6.28
2016-12-14T12:08:03.004Z,6.19
2016-12-14T12:09:13.725Z,6.31
2016-12-14T12:10:24.421Z,6.28
2016-12-14T12:11:35.144Z,6.19
2016-12-14T12:12:45.838Z,6.2
2016-12-14T12:13:56.532Z,6.12
2016-12-14T12:15:07.229Z,6.17
2016-12-14T12:16:17.917Z,6.16
2016-12-14T12:17:28.621Z,6.13
2016-12-14T12:18:39.318Z,6.07
2016-12-14T12:19:50.030Z,6.06
2016-12-14T12:21:00.734Z,6.01
2016-12-14T12:22:11.447Z,6.06
2016-12-14T12:23:22.142Z,6.01
2016-12-14T12:24:32.846Z,6.05
2016-12-14T12:25:43.544Z,6.06
2016-12-14T12:26:54.241Z,6.07
2016-12-14T12:28:04.942Z,6.06
2016-12-14T12:29:15.657Z,6.09
2016-12-14T12:30:26.370Z,6.1
2016-12-14T12:31:37.072Z,6.06
2016-12-14T12:32:47.771Z,6.02
2016-12-14T12:33:58.491Z,6.07
2016-12-14T12:35:09.187Z,6.12
2016-12-14T12:36:19.886Z,5.98
2016-12-14T12:37:30.624Z,5.99
2016-12-14T12:38:41.425Z,6.01
2016-12-14T12:39:52.161Z,6.1
2016-12-14T12:41:02.920Z,6.01
2016-12-14T12:42:13.657Z,6.02
2016-12-14T12:43:24.384Z,6.01
2016-12-14T12:44:35.121Z,5.98
2016-12-14T12:45:45.853Z,6.02
2016-12-14T12:46:56.588Z,5.94
2016-12-14T12:48:07.319Z,5.94
2016-12-14T12:49:18.062Z,6.05
2016-12-14T12:50:28.776Z,6.01
2016-12-14T12:51:39.509Z,5.9
2016-12-14T12:52:50.246Z,5.92
2016-12-14T12:54:00.946Z,5.87
2016-12-14T12:55:11.660Z,5.87
2016-12-14T12:56:22.405Z,5.91
2016-12-14T12:57:33.151Z,5.98
2016-12-14T12:58:43.881Z,5.95
2016-12-14T12:59:54.606Z,5.94
2016-12-14T13:01:05.328Z,5.9
2016-12-14T13:02:16.046Z,5.81
2016-12-14T13:03:26.781Z,5.84
2016-12-14T13:04:37.502Z,5.81
2016-12-14T13:05:48.232Z,5.87
2016-12-14T13:06:58.970Z,5.81
2016-12-14T13:08:09.726Z,5.79
2016-12-14T13:09:20.436Z,5.73
2016-12-14T13:10:31.158Z,5.72
2016-12-14T13:11:41.907Z,5.8
2016-12-14T13:12:52.657Z,5.72
2016-12-14T13:14:03.360Z,5.77
2016-12-14T13:15:14.391Z,5.72
2016-12-14T13:16:25.124Z,5.88
2016-12-14T13:17:35.834Z,5.79
2016-12-14T13:18:46.583Z,5.72
2016-12-14T13:19:57.312Z,5.77
2016-12-14T13:21:08.021Z,5.74
2016-12-14T13:22:18.750Z,5.72
2016-12-14T13:23:29.474Z,5.76
2016-12-14T13:24:40.191Z,5.73
2016-12-14T13:25:50.930Z,5.79
2016-12-14T13:27:01.677Z,5.77
2016-12-14T13:28:12.422Z,5.7
2016-12-14T13:29:23.171Z,5.77
2016-12-14T13:30:33.888Z,5.77
2016-12-14T13:31:44.638Z,5.76
2016-12-14T13:32:55.381Z,5.73
2016-12-14T13:34:06.130Z,5.77
2016-12-14T13:35:16.872Z,5.77
2016-12-14T13:36:27.597Z,5.77
2016-12-14T13:37:38.339Z,5.8
2016-12-14T13:38:49.093Z,5.77
2016-12-14T13:39:59.807Z,5.72
2016-12-14T13:41:10.552Z,5.79
2016-12-14T13:42:21.297Z,5.76
2016-12-14T13:43:32.046Z,5.79
2016-12-14T13:44:42.781Z,5.76
2016-12-14T13:45:53.522Z,5.79
2016-12-14T13:47:04.235Z,5.77
2016-12-14T13:48:14.956Z,5.74
2016-12-14T13:49:25.677Z,5.77
2016-12-14T13:50:36.430Z,5.76
2016-12-14T13:51:47.153Z,5.7
2016-12-14T13:52:57.898Z,5.77
2016-12-14T13:54:08.631Z,5.77
2016-12-14T13:55:19.381Z,5.8
2016-12-14T13:56:30.127Z,5.73
2016-12-14T13:57:40.862Z,5.74
2016-12-14T13:58:51.594Z,5.83
2016-12-14T14:00:02.312Z,5.81
2016-12-14T14:01:13.036Z,5.72
2016-12-14T14:02:24.091Z,5.77
2016-12-14T14:03:34.814Z,5.79
2016-12-14T14:04:45.525Z,5.79
2016-12-14T14:05:56.279Z,5.8
2016-12-14T14:07:07.005Z,5.77
2016-12-14T14:08:17.771Z,5.76
2016-12-14T14:09:28.509Z,5.81
2016-12-14T14:10:39.262Z,5.76
2016-12-14T14:11:49.987Z,5.77
2016-12-14T14:13:00.725Z,5.84
2016-12-14T14:14:11.439Z,5.84
2016-12-14T14:15:22.185Z,5.8
2016-12-14T14:16:32.906Z,5.74
2016-12-14T14:17:43.611Z,5.74
2016-12-14T14:18:54.335Z,5.84
2016-12-14T14:20:05.054Z,5.77
2016-12-14T14:21:15.793Z,5.76
2016-12-14T14:22:26.539Z,5.79
2016-12-14T14:23:37.284Z,5.8
2016-12-14T14:24:48.031Z,5.83
2016-12-14T14:25:58.735Z,5.74
2016-12-14T14:27:09.482Z,5.76
2016-12-14T14:28:20.198Z,5.8
2016-12-14T14:29:30.925Z,5.79
2016-12-14T14:30:41.660Z,5.76
2016-12-14T14:31:52.379Z,5.74
2016-12-14T14:33:03.103Z,5.76
2016-12-14T14:34:13.820Z,5.73
2016-12-14T14:35:24.542Z,5.83
2016-12-14T14:36:35.575Z,5.83
2016-12-14T14:37:46.291Z,5.76
2016-12-14T14:38:57.005Z,5.77
2016-12-14T14:40:07.753Z,5.74
2016-12-14T14:41:18.483Z,5.73
2016-12-14T14:42:29.171Z,5.69
2016-12-14T14:43:39.875Z,5.62
2016-12-14T14:44:50.892Z,5.64
2016-12-14T14:46:01.612Z,5.64
2016-12-14T14:47:12.368Z,5.69
2016-12-14T14:48:23.131Z,5.64
2016-12-14T14:49:33.857Z,5.61
2016-12-14T14:50:44.621Z,5.73
2016-12-14T14:51:55.370Z,5.69
2016-12-14T14:53:06.091Z,5.67
2016-12-14T14:54:16.827Z,5.64
2016-12-14T14:55:27.549Z,5.58
2016-12-14T14:56:38.297Z,5.67
2016-12-14T14:57:49.021Z,5.54
2016-12-14T14:59:00.064Z,5.44
2016-12-14T15:00:10.840Z,5.59
2016-12-14T15:01:21.588Z,5.56
2016-12-14T15:02:32.326Z,5.54
2016-12-14T15:03:43.045Z,5.62
2016-12-14T15:04:53.752Z,5.47
2016-12-14T15:06:04.487Z,5.59
2016-12-14T15:07:15.194Z,5.55
2016-12-14T15:08:25.912Z,5.62
2016-12-14T15:09:36.610Z,5.58
2016-12-14T15:10:47.355Z,5.59
2016-12-14T15:11:58.104Z,5.58
2016-12-14T15:13:08.837Z,5.56
2016-12-14T15:14:19.565Z,5.44
2016-12-14T15:15:30.302Z,5.47
2016-12-14T15:16:41.027Z,5.46
2016-12-14T15:17:51.743Z,5.49
2016-12-14T15:19:02.465Z,5.51
2016-12-14T15:20:13.214Z,5.44
2016-12-14T15:21:23.941Z,5.49
2016-12-14T15:22:34.659Z,5.47
2016-12-14T15:23:45.379Z,5.46
2016-12-14T15:24:56.100Z,5.41
2016-12-14T15:26:06.816Z,5.38
2016-12-14T15:27:17.542Z,5.4
2016-12-14T15:28:28.263Z,5.36
2016-12-14T15:29:39.000Z,5.37
2016-12-14T15:30:49.756Z,5.36
2016-12-14T15:32:00.495Z,5.28
2016-12-14T15:33:11.195Z,5.31
2016-12-14T15:34:21.921Z,5.23
2016-12-14T15:35:32.633Z,5.33
2016-12-14T15:36:43.338Z,5.23
2016-12-14T15:37:54.078Z,5.28
2016-12-14T15:39:04.799Z,5.29
2016-12-14T15:40:15.503Z,5.28
2016-12-14T15:41:26.233Z,5.22
2016-12-14T15:42:36.966Z,5.22
2016-12-14T15:43:47.712Z,5.2
2016-12-14T15:44:58.456Z,5.22